Time;durP1;ratioP1;P1;durP2;ratioP2;P2;SDS_P1;SDS_P2;PMS_P1;PMS_P2;Temp;Humidity;BMP_temperature;BMP_pressure;BME280_temperature;BME280_humidity;BME280_pressure;Samples;Min_cycle;Max_cycle;Signal;HPM_P1;HPM_P2
2024/04/12 03:32:07;;;;;;;3.25;1.80;;;16.80;99.90;;;;;;5490040;21;21202;-84
2024/04/12 03:34:36;;;;;;;4.65;2.08;;;16.80;99.90;;;;;;5239878;27;20345;-83
2024/04/12 03:39:47;;;;;;;4.95;2.25;;;16.80;99.90;;;;;;5229619;27;20425;-84
2024/04/12 03:42:18;;;;;;;3.97;2.13;;;16.80;99.90;;;;;;5241992;27;19999;-83
2024/04/12 03:44:43;;;;;;;4.93;2.60;;;16.80;99.90;;;;;;5244563;27;20439;-83
2024/04/12 03:47:10;;;;;;;3.88;2.30;;;16.80;99.90;;;;;;5245225;27;20002;-84
2024/04/12 03:49:39;;;;;;;4.53;2.10;;;16.80;99.90;;;;;;5271181;27;20026;-84
2024/04/12 03:52:11;;;;;;;5.53;2.28;;;16.80;99.90;;;;;;5231882;27;19998;-83
2024/04/12 03:54:36;;;;;;;4.00;2.10;;;16.70;99.90;;;;;;5271327;27;20018;-83
2024/04/12 03:57:06;;;;;;;4.00;2.10;;;16.70;99.90;;;;;;5245002;27;20003;-84
2024/04/12 03:59:34;;;;;;;;;;;16.80;99.90;;;;;;5245480;27;20043;-84
2024/04/12 04:02:06;;;;;;;3.88;1.98;;;16.80;99.90;;;;;;5244097;27;19934;-84
2024/04/12 04:04:44;;;;;;;4.75;2.10;;;16.80;99.90;;;;;;5244338;27;20030;-83
2024/04/12 04:07:14;;;;;;;4.00;2.00;;;16.80;99.90;;;;;;5267754;27;20407;-84
2024/04/12 04:09:42;;;;;;;3.13;1.80;;;16.80;99.90;;;;;;5268136;27;20014;-83
2024/04/12 04:12:12;;;;;;;4.18;2.00;;;16.80;99.90;;;;;;5264996;27;20536;-84
2024/04/12 04:14:47;;;;;;;5.65;1.90;;;16.80;99.90;;;;;;5245745;27;20018;-82
2024/04/12 04:17:14;;;;;;;4.10;2.10;;;16.70;99.90;;;;;;5270057;27;20752;-83
2024/04/12 04:19:41;;;;;;;3.50;2.00;;;16.80;99.90;;;;;;5244059;27;20093;-84
2024/04/12 04:24:54;;;;;;;4.78;2.00;;;16.80;99.90;;;;;;5238456;27;20081;-84
2024/04/12 04:27:24;;;;;;;3.97;1.90;;;16.70;99.90;;;;;;5249288;27;20003;-83
2024/04/12 04:29:51;;;;;;;4.47;2.22;;;16.80;99.90;;;;;;5246151;27;20003;-83
2024/04/12 04:32:20;;;;;;;4.50;2.03;;;16.70;99.90;;;;;;5276038;26;20014;-84
2024/04/12 04:34:47;;;;;;;3.45;1.90;;;16.70;99.90;;;;;;5248725;27;20388;-82
2024/04/12 04:37:14;;;;;;;4.65;2.20;;;16.80;99.90;;;;;;5243733;27;20022;-81
2024/04/12 04:39:40;;;;;;;3.25;1.80;;;16.80;99.90;;;;;;5239138;27;20014;-81
2024/04/12 04:42:06;;;;;;;4.55;1.75;;;16.80;99.90;;;;;;5243863;27;20022;-81
2024/04/12 04:44:31;;;;;;;4.85;2.30;;;16.80;99.90;;;;;;5244950;27;20420;-82
2024/04/12 04:46:57;;;;;;;2.47;1.75;;;16.80;99.90;;;;;;5274100;27;20007;-81
2024/04/12 04:49:23;;;;;;;3.33;1.70;;;16.80;99.90;;;;;;5247695;27;20074;-81
2024/04/12 04:51:49;;;;;;;2.63;1.73;;;16.80;99.90;;;;;;5241411;27;20035;-82
2024/04/12 04:54:16;;;;;;;3.10;1.63;;;16.80;99.90;;;;;;5246718;27;20003;-81
2024/04/12 04:56:44;;;;;;;3.22;1.80;;;16.80;99.90;;;;;;5241758;27;20392;-82
2024/04/12 04:59:17;;;;;;;2.58;1.50;;;16.80;99.90;;;;;;5258784;27;21205;-81
2024/04/12 05:01:45;;;;;;;2.40;1.45;;;16.80;99.90;;;;;;5268304;27;20007;-81
2024/04/12 05:04:15;;;;;;;2.80;1.58;;;16.80;99.90;;;;;;5255081;27;20345;-81
2024/04/12 05:06:42;;;;;;;2.75;1.58;;;16.80;99.90;;;;;;5243205;27;20027;-81
2024/04/12 05:09:09;;;;;;;3.05;1.60;;;16.80;99.90;;;;;;5272653;27;20017;-82
2024/04/12 05:11:38;;;;;;;3.97;1.50;;;16.80;99.90;;;;;;5241636;27;20014;-81
2024/04/12 05:14:13;;;;;;;3.28;2.00;;;16.80;99.90;;;;;;5239682;27;20085;-81
2024/04/12 05:16:43;;;;;;;4.20;1.73;;;16.80;99.90;;;;;;5240220;27;20014;-82
2024/04/12 05:19:09;;;;;;;3.35;1.60;;;16.80;99.90;;;;;;5267232;27;20003;-81
2024/04/12 05:21:38;;;;;;;2.95;2.00;;;16.80;99.90;;;;;;5231986;27;20429;-82
2024/04/12 05:24:09;;;;;;;3.22;1.40;;;16.80;99.90;;;;;;5270841;27;20562;-81
2024/04/12 05:26:41;;;;;;;3.20;1.65;;;16.80;99.90;;;;;;5271063;27;20014;-81
2024/04/12 05:29:11;;;;;;;2.88;1.65;;;16.80;99.90;;;;;;5239017;27;20013;-81
2024/04/12 05:31:44;;;;;;;4.43;1.88;;;16.80;99.90;;;;;;5265920;27;20003;-81
2024/04/12 05:34:12;;;;;;;2.65;1.75;;;16.80;99.90;;;;;;5268365;27;20014;-81
2024/04/12 05:36:41;;;;;;;3.28;1.83;;;16.80;99.90;;;;;;5268696;27;20061;-82
2024/04/12 05:39:11;;;;;;;4.72;1.83;;;16.80;99.90;;;;;;5245678;27;20022;-81
2024/04/12 05:41:44;;;;;;;2.20;1.65;;;16.80;99.90;;;;;;5242541;27;20003;-81
2024/04/12 05:44:11;;;;;;;6.05;1.63;;;16.80;99.90;;;;;;5242169;27;20003;-82
2024/04/12 05:46:39;;;;;;;3.40;1.63;;;16.80;99.90;;;;;;5241326;27;20188;-82
2024/04/12 05:49:09;;;;;;;3.28;1.63;;;16.80;99.90;;;;;;5269920;27;19999;-82
2024/04/12 05:51:41;;;;;;;2.42;1.52;;;16.80;99.90;;;;;;5239416;27;20468;-81
2024/04/12 05:54:10;;;;;;;5.07;1.90;;;16.80;99.90;;;;;;5251446;27;20431;-81
2024/04/12 05:56:39;;;;;;;3.17;1.40;;;16.80;99.90;;;;;;5228479;27;20051;-80
2024/04/12 05:59:13;;;;;;;2.93;1.70;;;16.80;99.90;;;;;;5267730;27;20014;-80
2024/04/12 06:01:43;;;;;;;3.50;1.60;;;16.80;99.90;;;;;;5239034;27;20787;-81
2024/04/12 06:04:10;;;;;;;3.75;1.77;;;16.80;99.90;;;;;;5267870;27;20003;-82
2024/04/12 06:06:46;;;;;;;5.13;1.70;;;16.80;99.90;;;;;;5242950;27;20003;-82
2024/04/12 06:09:19;;;;;;;2.92;1.40;;;16.80;99.90;;;;;;5245755;27;20088;-82
2024/04/12 06:11:47;;;;;;;2.65;1.60;;;16.80;99.90;;;;;;5240487;27;20429;-81
2024/04/12 06:14:13;;;;;;;2.83;1.70;;;16.80;99.90;;;;;;5274038;27;20428;-81
2024/04/12 06:16:40;;;;;;;3.63;1.75;;;16.80;99.90;;;;;;5241214;27;20019;-82
2024/04/12 06:19:05;;;;;;;3.58;1.60;;;16.80;99.90;;;;;;5276842;27;20003;-81
2024/04/12 06:21:32;;;;;;;3.90;1.60;;;16.70;99.90;;;;;;5268388;27;20476;-82
2024/04/12 06:23:58;;;;;;;2.40;1.50;;;16.70;99.90;;;;;;5267298;27;20339;-82
2024/04/12 06:26:24;;;;;;;2.33;1.58;;;16.80;99.90;;;;;;5274980;27;20011;-82
2024/04/12 06:28:51;;;;;;;2.97;1.50;;;16.80;99.90;;;;;;5241014;27;20011;-81
2024/04/12 06:31:20;;;;;;;3.78;1.60;;;16.70;99.90;;;;;;5239920;27;20441;-82
2024/04/12 06:33:51;;;;;;;3.13;1.60;;;16.80;99.90;;;;;;5267698;27;20007;-82
2024/04/12 06:36:17;;;;;;;2.72;1.52;;;16.80;99.90;;;;;;5237558;27;20002;-81
2024/04/12 06:38:43;;;;;;;3.40;1.55;;;16.80;99.90;;;;;;5238271;27;20314;-81
2024/04/12 06:41:14;;;;;;;4.70;1.60;;;16.80;99.90;;;;;;5255690;27;20010;-82
2024/04/12 06:43:42;;;;;;;4.07;1.70;;;16.80;99.90;;;;;;5269529;27;20019;-82
2024/04/12 06:46:16;;;;;;;3.75;1.60;;;16.80;99.90;;;;;;5238656;27;20014;-82
2024/04/12 06:48:41;;;;;;;3.78;1.50;;;16.80;99.90;;;;;;5231279;27;20011;-82
2024/04/12 06:51:11;;;;;;;2.90;1.60;;;16.80;99.90;;;;;;5274093;26;19999;-83
2024/04/12 06:53:44;;;;;;;3.20;1.70;;;16.80;99.90;;;;;;5241758;27;20436;-83
2024/04/12 06:56:17;;;;;;;2.38;1.42;;;16.80;99.90;;;;;;5263412;27;20014;-83
2024/04/12 06:58:47;;;;;;;2.83;1.50;;;16.80;99.90;;;;;;5244448;27;20003;-83
2024/04/12 07:01:14;;;;;;;3.08;1.83;;;16.80;99.90;;;;;;5245805;27;20002;-82
2024/04/12 07:03:40;;;;;;;3.85;1.75;;;16.80;99.90;;;;;;5265468;27;20015;-83
2024/04/12 07:06:16;;;;;;;1.95;1.45;;;16.80;99.90;;;;;;5239444;27;20003;-83
2024/04/12 07:08:49;;;;;;;3.75;1.73;;;16.80;99.90;;;;;;5268849;27;20018;-83
2024/04/12 07:11:19;;;;;;;3.75;1.67;;;16.80;99.90;;;;;;5268698;27;20003;-82
2024/04/12 07:13:49;;;;;;;;;;;16.80;99.90;;;;;;5242625;27;20018;-82
2024/04/12 07:16:18;;;;;;;3.38;1.48;;;16.80;99.90;;;;;;5242430;27;19966;-83
2024/04/12 07:18:43;;;;;;;3.95;1.67;;;16.80;99.90;;;;;;5245448;27;20007;-83
2024/04/12 07:21:15;;;;;;;3.40;1.50;;;16.80;99.90;;;;;;5252415;27;20040;-82
2024/04/12 07:23:51;;;;;;;3.92;1.67;;;16.80;99.90;;;;;;5245217;27;20011;-82
2024/04/12 07:26:27;;;;;;;3.85;1.98;;;;;;;;;;5245558;27;20003;-82
2024/04/12 07:28:59;;;;;;;4.13;1.83;;;16.80;99.90;;;;;;5243619;27;20444;-83
2024/04/12 07:31:26;;;;;;;3.90;1.85;;;16.80;99.90;;;;;;5236847;27;20018;-83
2024/04/12 07:33:52;;;;;;;2.90;1.70;;;16.80;99.90;;;;;;5243697;27;20035;-82
2024/04/12 07:36:18;;;;;;;4.20;1.90;;;16.80;99.90;;;;;;5271551;27;20514;-83
2024/04/12 07:38:43;;;;;;;3.30;1.90;;;16.80;99.90;;;;;;5269612;27;20030;-81
2024/04/12 07:41:13;;;;;;;3.35;1.65;;;16.80;99.90;;;;;;5270892;27;19999;-81
2024/04/12 07:43:42;;;;;;;2.53;1.52;;;16.80;99.90;;;;;;5242833;27;20022;-81
2024/04/12 07:46:14;;;;;;;3.63;1.70;;;16.80;99.90;;;;;;5244832;27;20007;-81
2024/04/12 07:48:48;;;;;;;3.85;1.80;;;16.80;99.90;;;;;;5262519;27;20003;-81
2024/04/12 07:51:20;;;;;;;4.22;1.98;;;16.80;99.90;;;;;;5271253;27;20018;-83
2024/04/12 07:53:47;;;;;;;3.45;1.83;;;16.80;99.90;;;;;;5270873;27;20046;-81
2024/04/12 07:56:16;;;;;;;4.47;1.75;;;16.80;99.90;;;;;;5242945;27;20436;-81
2024/04/12 07:58:43;;;;;;;4.20;2.00;;;;;;;;;;5271407;27;20007;-81
2024/04/12 08:01:16;;;;;;;3.28;1.77;;;16.80;99.90;;;;;;5271049;27;20023;-82
2024/04/12 08:03:56;;;;;;;4.18;1.92;;;16.80;99.90;;;;;;5244469;27;20436;-81
2024/04/12 08:06:49;;;;;;;3.40;1.77;;;16.80;99.90;;;;;;5245501;27;20337;-82
2024/04/12 08:09:21;;;;;;;4.50;2.00;;;16.80;99.90;;;;;;5240418;27;20003;-81
2024/04/12 08:11:51;;;;;;;4.15;1.60;;;16.80;99.90;;;;;;5245833;27;20058;-82
2024/04/12 08:14:22;;;;;;;3.42;1.90;;;16.80;99.90;;;;;;5245464;27;20007;-81
2024/04/12 08:16:52;;;;;;;3.90;1.95;;;16.80;99.90;;;;;;5239673;27;20337;-82
2024/04/12 08:19:22;;;;;;;5.05;2.10;;;16.80;99.90;;;;;;5269467;27;20043;-83
2024/04/12 08:21:49;;;;;;;5.50;1.95;;;16.80;99.90;;;;;;5268242;27;20006;-83
2024/04/12 08:24:22;;;;;;;4.95;2.03;;;16.90;99.90;;;;;;5249539;27;20355;-83
2024/04/12 08:26:54;;;;;;;5.05;2.10;;;16.90;99.90;;;;;;5240752;27;20019;-81
2024/04/12 08:29:24;;;;;;;4.68;2.38;;;16.80;99.90;;;;;;5244409;27;20014;-82
2024/04/12 08:31:50;;;;;;;;;;;16.90;99.90;;;;;;5272352;27;20074;-82
2024/04/12 08:34:16;;;;;;;4.68;1.83;;;16.90;99.90;;;;;;5268661;27;19928;-82
2024/04/12 08:36:49;;;;;;;3.80;1.95;;;16.90;99.90;;;;;;5242386;27;20002;-82
2024/04/12 08:39:25;;;;;;;4.40;1.80;;;16.80;99.90;;;;;;5243412;27;20014;-82
2024/04/12 08:42:01;;;;;;;6.20;1.95;;;16.80;99.90;;;;;;5274357;26;20336;-83
2024/04/12 08:44:29;;;;;;;5.07;1.63;;;16.80;99.90;;;;;;5251557;27;20054;-82
2024/04/12 08:46:59;;;;;;;5.30;2.47;;;16.80;99.90;;;;;;5241443;27;20046;-83
2024/04/12 08:49:28;;;;;;;2.92;2.10;;;16.80;99.90;;;;;;5239874;27;20002;-84
2024/04/12 08:51:58;;;;;;;3.87;2.00;;;16.80;99.90;;;;;;5274921;27;20010;-83
2024/04/12 08:54:26;;;;;;;4.88;2.45;;;;;;;;;;5239981;27;19999;-84
2024/04/12 08:56:52;;;;;;;4.00;2.33;;;16.80;99.90;;;;;;5268416;27;20122;-84
2024/04/12 08:59:26;;;;;;;5.07;2.50;;;16.80;99.90;;;;;;5247603;27;20017;-82
2024/04/12 09:01:54;;;;;;;4.15;2.03;;;16.80;99.90;;;;;;5242147;27;20034;-85
2024/04/12 09:04:22;;;;;;;5.03;2.55;;;16.80;99.90;;;;;;5248530;27;20018;-84
2024/04/12 09:06:48;;;;;;;6.50;2.20;;;16.80;99.90;;;;;;5244006;27;20025;-84
2024/04/12 09:09:15;;;;;;;7.05;3.20;;;16.80;99.90;;;;;;5271937;27;20023;-84
2024/04/12 09:11:54;;;;;;;6.10;2.58;;;16.80;99.90;;;;;;5238606;27;20007;-83
2024/04/12 09:14:20;;;;;;;4.85;2.72;;;16.80;99.90;;;;;;5250290;27;20010;-84
2024/04/12 09:16:48;;;;;;;3.92;2.40;;;16.80;99.90;;;;;;5249894;27;20372;-83
2024/04/12 09:19:15;;;;;;;5.05;2.30;;;16.90;99.90;;;;;;5236141;27;20018;-83
2024/04/12 09:21:58;;;;;;;7.18;2.55;;;16.80;99.90;;;;;;5233556;27;20484;-84
2024/04/12 09:24:31;;;;;;;5.03;2.72;;;16.90;99.90;;;;;;5252208;27;20021;-84
2024/04/12 09:27:05;;;;;;;16.23;3.80;;;16.90;99.90;;;;;;5267744;27;20025;-83
2024/04/12 09:29:33;;;;;;;7.53;3.03;;;16.90;99.90;;;;;;5246008;27;20007;-83
2024/04/12 09:34:55;;;;;;;10.13;3.33;;;16.90;99.90;;;;;;5243230;27;20014;-84
2024/04/12 09:43:25;;;;;;;11.75;3.85;;;;;;;;;;5240122;27;20384;-83
2024/04/12 09:45:45;;;;;;;12.13;3.75;;;;;;;;;;5246936;27;20015;-84
2024/04/12 10:39:13;;;;;;;13.00;3.72;;;17.00;99.90;;;;;;5242985;27;20014;-85
2024/04/12 10:41:45;;;;;;;8.25;3.05;;;17.00;99.90;;;;;;5244916;27;20391;-84
2024/04/12 10:44:13;;;;;;;6.55;3.03;;;17.10;99.90;;;;;;5266491;27;20413;-84
2024/04/12 10:46:39;;;;;;;6.30;2.92;;;17.10;99.90;;;;;;5240867;27;20003;-84
2024/04/12 10:49:05;;;;;;;6.35;2.83;;;17.10;99.90;;;;;;5237332;27;19999;-84
2024/04/12 10:51:35;;;;;;;6.85;2.67;;;17.10;99.90;;;;;;5266373;27;20086;-83
2024/04/12 10:54:04;;;;;;;9.65;3.20;;;17.10;99.90;;;;;;5279276;27;20316;-84
2024/04/12 10:56:30;;;;;;;14.15;3.20;;;17.10;99.90;;;;;;5245616;27;20011;-84
2024/04/12 10:58:59;;;;;;;7.60;2.63;;;17.10;99.90;;;;;;5238278;27;20359;-83
2024/04/12 11:01:26;;;;;;;7.32;2.70;;;17.10;99.90;;;;;;5237082;27;20022;-84
2024/04/12 11:03:58;;;;;;;7.97;3.10;;;17.10;99.90;;;;;;5237501;27;20035;-84
2024/04/12 11:06:31;;;;;;;7.78;3.33;;;17.10;99.90;;;;;;5270089;27;20003;-84
2024/04/12 11:09:13;;;;;;;8.57;2.95;;;17.20;99.90;;;;;;5266614;27;20020;-84
2024/04/12 11:11:43;;;;;;;13.23;3.30;;;17.20;99.90;;;;;;5266197;27;20007;-84
2024/04/12 11:14:25;;;;;;;11.90;3.00;;;17.20;99.90;;;;;;5236424;27;20015;-84
2024/04/12 11:33:31;;;;;;;10.23;2.55;;;17.30;99.90;;;;;;5243984;27;20080;-83
2024/04/12 11:36:01;;;;;;;4.22;2.13;;;17.30;99.90;;;;;;5253471;27;20002;-82
2024/04/12 11:38:27;;;;;;;5.70;2.35;;;17.30;99.90;;;;;;5238011;27;20049;-82
2024/04/12 11:40:56;;;;;;;5.93;2.30;;;17.20;99.90;;;;;;5237901;27;20078;-84
2024/04/12 11:43:22;;;;;;;5.67;2.30;;;17.20;99.90;;;;;;5246414;27;20011;-83
2024/04/12 11:45:49;;;;;;;4.38;1.88;;;17.20;99.90;;;;;;5243064;27;20375;-83
2024/04/12 11:48:14;;;;;;;6.53;1.95;;;17.20;99.90;;;;;;5274472;27;20108;-84
2024/04/12 11:50:43;;;;;;;3.42;1.98;;;17.20;99.90;;;;;;5268063;27;20011;-83
2024/04/12 11:53:10;;;;;;;7.78;2.22;;;17.10;99.90;;;;;;5235106;27;20484;-84
2024/04/12 11:55:39;;;;;;;2.95;1.65;;;17.10;99.90;;;;;;5275005;27;20037;-83
2024/04/12 11:58:08;;;;;;;24.02;2.30;;;17.10;99.90;;;;;;5271247;27;20013;-83
2024/04/12 12:00:37;;;;;;;14.83;2.33;;;17.10;99.90;;;;;;5239264;27;20015;-84
2024/04/12 12:03:03;;;;;;;6.75;1.83;;;17.20;99.90;;;;;;5232776;27;20418;-83
2024/04/12 12:05:29;;;;;;;7.45;2.10;;;17.20;99.90;;;;;;5269611;27;20022;-84
2024/04/12 12:07:55;;;;;;;5.63;2.33;;;17.30;99.90;;;;;;5243733;27;20482;-84
2024/04/12 12:10:22;;;;;;;7.15;1.60;;;17.30;99.90;;;;;;5245980;27;20042;-84
2024/04/12 12:12:48;;;;;;;6.53;1.80;;;17.30;99.90;;;;;;5245009;27;19999;-84
2024/04/12 12:15:14;;;;;;;38.88;4.80;;;17.30;99.90;;;;;;5247098;27;20122;-84
2024/04/12 12:17:40;;;;;;;16.02;3.28;;;17.30;99.90;;;;;;5242431;27;20030;-84
2024/04/12 12:20:06;;;;;;;8.82;2.28;;;17.30;99.90;;;;;;5242591;27;20011;-84
2024/04/12 12:22:32;;;;;;;8.20;1.92;;;17.30;99.90;;;;;;5268777;27;20508;-85
2024/04/12 12:24:58;;;;;;;9.23;2.40;;;17.30;99.90;;;;;;5269003;27;20014;-84
2024/04/12 12:27:24;;;;;;;8.23;2.20;;;17.30;99.90;;;;;;5271373;27;19999;-84
2024/04/12 12:29:53;;;;;;;9.45;2.15;;;17.30;99.90;;;;;;5274117;27;20010;-84
2024/04/12 12:32:25;;;;;;;8.80;2.37;;;17.30;99.90;;;;;;5244919;27;20003;-85
2024/04/12 12:34:51;;;;;;;6.20;2.05;;;17.20;99.90;;;;;;5240058;27;20007;-84
2024/04/12 12:37:16;;;;;;;4.95;2.20;;;17.30;99.90;;;;;;5241530;27;20543;-84
2024/04/12 12:39:43;;;;;;;6.35;2.05;;;17.20;99.90;;;;;;5241972;27;20015;-84
2024/04/12 12:42:09;;;;;;;8.68;2.00;;;17.30;99.90;;;;;;5249063;27;20003;-84
2024/04/12 12:44:36;;;;;;;8.10;2.30;;;17.30;99.90;;;;;;5240833;27;20003;-83
2024/04/12 12:47:02;;;;;;;6.70;1.90;;;17.30;99.90;;;;;;5243067;27;20059;-83
2024/04/12 12:49:39;;;;;;;7.18;2.22;;;17.30;99.90;;;;;;5268619;27;20357;-83
2024/04/12 12:52:12;;;;;;;3.92;2.45;;;17.20;99.90;;;;;;5238200;27;20047;-84
2024/04/12 12:54:44;;;;;;;5.60;2.17;;;17.30;99.90;;;;;;5242428;27;20007;-84
2024/04/12 12:57:14;;;;;;;3.10;1.80;;;17.30;99.90;;;;;;5248535;27;20011;-84
2024/04/12 12:59:43;;;;;;;;;;;17.20;99.90;;;;;;5245725;27;20138;-84
2024/04/12 13:02:14;;;;;;;4.18;2.10;;;17.20;99.90;;;;;;5266560;27;19956;-84
2024/04/12 13:04:43;;;;;;;6.05;2.40;;;17.20;99.90;;;;;;5238875;27;20003;-83
2024/04/12 13:07:09;;;;;;;3.23;1.90;;;17.20;99.90;;;;;;5244735;27;20003;-84
2024/04/12 13:09:35;;;;;;;3.60;1.80;;;17.20;99.90;;;;;;5241010;27;20691;-84
2024/04/12 13:12:10;;;;;;;5.15;1.90;;;17.20;99.90;;;;;;5243129;27;20007;-83
2024/04/12 13:14:45;;;;;;;4.03;1.88;;;17.20;99.90;;;;;;5263577;27;20019;-84
2024/04/12 13:17:12;;;;;;;3.08;1.90;;;17.10;99.90;;;;;;5271133;27;20313;-82
2024/04/12 13:19:42;;;;;;;4.35;1.92;;;17.10;99.90;;;;;;5270760;27;20015;-85
2024/04/12 13:22:14;;;;;;;3.03;1.73;;;17.10;99.90;;;;;;5246355;27;20010;-84
2024/04/12 13:24:43;;;;;;;3.60;1.92;;;17.10;99.90;;;;;;5250014;27;20006;-84
2024/04/12 13:27:09;;;;;;;2.47;1.90;;;17.10;99.90;;;;;;5240975;27;20003;-86
2024/04/12 13:29:36;;;;;;;5.05;1.88;;;17.10;99.90;;;;;;5273518;27;20270;-84
2024/04/12 13:32:05;;;;;;;4.20;1.77;;;17.10;99.90;;;;;;5238396;27;20007;-84
2024/04/12 13:34:32;;;;;;;6.65;2.00;;;17.10;99.90;;;;;;5267236;27;20337;-84
2024/04/12 13:36:59;;;;;;;9.73;2.05;;;17.10;99.90;;;;;;5249134;27;20400;-84
2024/04/12 13:39:25;;;;;;;6.03;2.00;;;17.10;99.90;;;;;;5241799;27;20015;-84
2024/04/12 13:41:56;;;;;;;4.65;1.90;;;17.10;99.90;;;;;;5267054;27;20445;-84
2024/04/12 13:44:25;;;;;;;3.00;1.63;;;17.10;99.90;;;;;;5270350;27;20017;-84
2024/04/12 13:52:25;;;;;;;3.63;1.80;;;17.10;99.90;;;;;;5245850;27;20014;-83
2024/04/12 13:54:56;;;;;;;5.13;1.90;;;17.10;99.90;;;;;;5244587;27;20017;-83
2024/04/12 13:57:24;;;;;;;3.85;1.67;;;17.10;99.90;;;;;;5274185;27;20038;-83
2024/04/12 13:59:50;;;;;;;5.43;1.80;;;17.10;99.90;;;;;;5240970;27;20018;-84
2024/04/12 14:02:15;;;;;;;5.85;1.90;;;17.10;99.90;;;;;;5220176;27;20003;-83
2024/04/12 14:04:43;;;;;;;2.78;1.80;;;17.10;99.90;;;;;;5245502;27;20002;-83
2024/04/12 14:07:09;;;;;;;5.78;1.88;;;17.10;99.90;;;;;;5249756;27;20003;-83
2024/04/12 14:09:34;;;;;;;1.95;1.70;;;17.10;99.90;;;;;;5237753;27;20086;-83
2024/04/12 14:12:00;;;;;;;5.55;2.10;;;17.10;99.90;;;;;;5254994;27;20313;-83
2024/04/12 14:14:26;;;;;;;3.38;1.80;;;17.10;99.90;;;;;;5242412;27;20003;-83
2024/04/12 14:16:52;;;;;;;3.35;2.00;;;17.10;99.90;;;;;;5264731;27;20006;-83
2024/04/12 14:19:18;;;;;;;4.65;2.00;;;17.10;99.90;;;;;;5269614;27;20477;-84
2024/04/12 14:21:51;;;;;;;2.90;1.70;;;17.10;99.90;;;;;;5234888;27;20003;-83
2024/04/12 14:27:03;;;;;;;4.15;1.88;;;17.10;99.90;;;;;;5238930;27;20014;-84
2024/04/12 14:29:30;;;;;;;2.90;1.70;;;17.10;99.90;;;;;;5238958;27;20053;-83
2024/04/12 14:31:56;;;;;;;2.88;1.60;;;17.10;99.90;;;;;;5249054;27;20003;-83
2024/04/12 14:34:22;;;;;;;2.47;1.63;;;17.10;99.90;;;;;;5271961;27;20018;-83
2024/04/12 14:36:48;;;;;;;2.60;1.80;;;17.10;99.90;;;;;;5267096;27;20007;-83
2024/04/12 14:39:17;;;;;;;5.00;2.17;;;17.10;99.90;;;;;;5247819;27;20432;-83
2024/04/12 14:41:44;;;;;;;2.65;1.85;;;17.10;99.90;;;;;;5244496;27;20035;-85
2024/04/12 14:44:11;;;;;;;12.02;1.80;;;17.10;99.90;;;;;;5271596;27;20007;-83
2024/04/12 14:46:39;;;;;;;9.55;1.85;;;17.30;99.90;;;;;;5265554;27;20464;-83
2024/04/12 14:49:05;;;;;;;9.90;1.70;;;17.40;99.90;;;;;;5265979;27;20007;-83
2024/04/12 14:51:33;;;;;;;5.55;1.60;;;17.50;99.90;;;;;;5265180;27;20003;-83
2024/04/12 14:53:58;;;;;;;4.55;1.67;;;17.70;99.90;;;;;;5236936;27;20002;-83
2024/04/12 14:56:24;;;;;;;4.63;1.50;;;17.80;99.90;;;;;;5240391;27;20468;-83
2024/04/12 14:59:11;;;;;;;5.50;1.80;;;18.00;99.90;;;;;;5269714;27;20083;-83
2024/04/12 15:01:37;;;;;;;7.35;2.38;;;18.10;99.90;;;;;;5238981;27;21991;-83
2024/04/12 15:48:11;;;;;;;5.80;2.25;;;18.40;99.90;;;;;;5242310;27;20086;-85
2024/04/12 15:50:37;;;;;;;4.75;2.10;;;18.40;99.90;;;;;;5267099;27;20011;-85
2024/04/12 15:53:18;;;;;;;5.15;2.10;;;18.40;99.90;;;;;;5268320;27;20007;-85
2024/04/12 16:12:27;;;;;;;6.78;2.08;;;18.30;99.90;;;;;;5240936;27;21148;-85
2024/04/12 16:14:53;;;;;;;4.03;1.92;;;18.30;99.90;;;;;;5266269;27;20014;-84
2024/04/12 16:17:19;;;;;;;4.47;1.75;;;18.30;99.90;;;;;;5238669;27;20003;-84
2024/04/12 16:19:46;;;;;;;3.60;1.70;;;18.30;99.90;;;;;;5234028;27;20027;-85
2024/04/12 16:22:12;;;;;;;3.70;1.70;;;18.30;99.90;;;;;;5270847;27;20017;-85
2024/04/12 16:24:37;;;;;;;5.50;1.90;;;18.30;99.90;;;;;;5242971;27;20007;-83
2024/04/12 16:27:05;;;;;;;4.03;1.85;;;18.20;99.90;;;;;;5244542;27;20446;-84
2024/04/12 16:29:31;;;;;;;4.32;1.80;;;18.30;99.90;;;;;;5268134;27;20013;-84
2024/04/12 16:31:57;;;;;;;3.53;1.60;;;18.30;99.90;;;;;;5267390;27;20039;-84
2024/04/12 16:34:23;;;;;;;4.47;1.75;;;18.30;99.90;;;;;;5250560;27;20003;-83
2024/04/12 16:36:49;;;;;;;3.28;1.52;;;18.30;99.90;;;;;;5267372;27;20017;-84
2024/04/12 16:39:15;;;;;;;3.50;1.70;;;18.20;99.90;;;;;;5280311;27;20003;-83
2024/04/12 16:41:42;;;;;;;3.60;1.98;;;18.20;99.90;;;;;;5241064;27;20018;-82
2024/04/12 16:44:11;;;;;;;3.40;1.70;;;18.20;99.90;;;;;;5241053;27;20007;-83
2024/04/12 16:46:37;;;;;;;5.43;1.97;;;18.20;99.90;;;;;;5266074;27;20006;-83
2024/04/12 16:49:03;;;;;;;4.85;1.83;;;18.20;99.90;;;;;;5240879;27;20282;-83
2024/04/12 16:51:29;;;;;;;2.80;1.90;;;18.20;99.90;;;;;;5243758;27;20003;-83
2024/04/12 16:53:54;;;;;;;3.00;1.80;;;18.20;99.90;;;;;;5269028;27;20014;-82
2024/04/12 16:56:24;;;;;;;2.92;1.70;;;18.20;99.90;;;;;;5268703;27;20007;-82
2024/04/12 16:58:56;;;;;;;2.90;1.70;;;18.20;99.90;;;;;;5241362;27;20374;-83
2024/04/12 17:01:22;;;;;;;3.75;1.50;;;18.10;99.90;;;;;;5242967;27;20238;-83
2024/04/12 17:03:48;;;;;;;3.92;1.50;;;18.10;99.90;;;;;;5284721;27;20011;-82
2024/04/12 17:06:14;;;;;;;2.95;1.70;;;18.10;99.90;;;;;;5272753;27;20011;-83
2024/04/12 17:08:39;;;;;;;3.38;1.60;;;18.10;99.90;;;;;;5234681;27;20022;-83
2024/04/12 17:11:06;;;;;;;2.83;1.70;;;18.10;99.90;;;;;;5244381;27;20031;-83
2024/04/12 17:13:32;;;;;;;4.15;1.55;;;18.10;99.90;;;;;;5238879;27;20011;-83
2024/04/12 17:16:02;;;;;;;4.55;1.67;;;18.10;99.90;;;;;;5267210;27;20006;-83
2024/04/12 17:18:33;;;;;;;3.85;1.67;;;18.10;99.90;;;;;;5269766;27;20336;-84
2024/04/12 17:20:58;;;;;;;3.33;2.00;;;18.00;99.90;;;;;;5241412;27;20007;-83
2024/04/12 17:23:27;;;;;;;3.10;1.60;;;18.10;99.90;;;;;;5244752;27;20018;-84
2024/04/12 17:25:54;;;;;;;2.40;1.43;;;18.10;99.90;;;;;;5247311;27;20031;-84
2024/04/12 17:28:19;;;;;;;3.03;1.70;;;18.00;99.90;;;;;;5241341;27;20000;-83
2024/04/12 17:30:45;;;;;;;2.40;1.73;;;18.00;99.90;;;;;;5243753;27;20353;-83
2024/04/12 17:33:10;;;;;;;2.08;1.55;;;18.00;99.90;;;;;;5237341;27;20022;-83
2024/04/12 17:35:36;;;;;;;1.95;1.52;;;18.00;99.90;;;;;;5240465;27;20021;-83
2024/04/12 17:38:02;;;;;;;4.13;1.90;;;18.00;99.90;;;;;;5242982;27;20007;-84
2024/04/12 17:40:29;;;;;;;4.40;1.60;;;18.00;99.90;;;;;;5243392;27;20015;-83
2024/04/12 17:42:54;;;;;;;2.10;1.40;;;18.00;99.90;;;;;;5268866;27;20003;-83
2024/04/12 17:45:22;;;;;;;6.22;1.83;;;18.00;99.90;;;;;;5276537;27;20094;-83
2024/04/12 17:47:49;;;;;;;2.97;1.42;;;18.00;99.90;;;;;;5258007;27;20543;-83
2024/04/12 17:50:15;;;;;;;2.67;1.70;;;17.90;99.90;;;;;;5266201;27;20007;-83
2024/04/12 17:52:41;;;;;;;2.55;1.70;;;17.90;99.90;;;;;;5241445;27;20007;-83
2024/04/12 17:55:06;;;;;;;3.45;1.70;;;17.90;99.90;;;;;;5242940;27;20075;-83
2024/04/12 17:57:32;;;;;;;2.58;1.58;;;17.90;99.90;;;;;;5269907;27;20010;-83
2024/04/12 17:59:58;;;;;;;2.30;1.73;;;17.90;99.90;;;;;;5227729;27;20007;-83
2024/04/12 18:02:24;;;;;;;2.92;1.90;;;17.90;99.90;;;;;;5266454;27;20021;-84
2024/04/12 18:04:50;;;;;;;2.10;1.73;;;17.90;99.90;;;;;;5268980;27;20018;-83
2024/04/12 18:07:16;;;;;;;2.45;1.50;;;17.90;99.90;;;;;;5240995;27;20007;-83
2024/04/12 18:09:44;;;;;;;2.25;1.50;;;17.90;99.90;;;;;;5241178;27;20010;-83
2024/04/12 18:12:11;;;;;;;2.53;1.60;;;17.90;99.90;;;;;;5238046;27;20011;-84
2024/04/12 18:14:41;;;;;;;3.35;1.80;;;17.90;99.90;;;;;;5235981;27;20014;-83
2024/04/12 18:17:07;;;;;;;;;;;17.90;99.90;;;;;;5243311;27;20011;-85
2024/04/12 18:19:38;;;;;;;3.42;1.90;;;17.80;99.90;;;;;;5269801;27;19927;-83
2024/04/12 18:22:04;;;;;;;3.15;1.67;;;17.80;99.90;;;;;;5252995;27;20007;-83
2024/04/12 18:24:30;;;;;;;7.13;2.10;;;17.80;99.90;;;;;;5239576;27;20003;-84
2024/04/12 18:26:55;;;;;;;9.45;2.50;;;17.80;99.90;;;;;;5238691;27;20340;-85
2024/04/12 18:29:21;;;;;;;7.45;2.55;;;17.80;99.90;;;;;;5242236;27;19999;-85
2024/04/12 18:31:47;;;;;;;4.10;1.80;;;17.80;99.90;;;;;;5268113;27;20007;-84
2024/04/12 18:34:15;;;;;;;5.88;2.08;;;17.80;99.90;;;;;;5238268;27;20026;-84
2024/04/12 18:37:00;;;;;;;6.15;2.20;;;17.80;99.90;;;;;;5245800;27;20026;-83
2024/04/12 18:45:08;;;;;;;6.40;2.22;;;17.70;99.90;;;;;;5237666;27;20070;-83
2024/04/12 18:47:35;;;;;;;4.07;2.13;;;17.70;99.90;;;;;;5241634;27;20003;-83
2024/04/12 18:50:07;;;;;;;7.22;2.10;;;17.70;99.90;;;;;;5239856;27;20011;-83
2024/04/12 18:52:32;;;;;;;5.45;2.05;;;17.70;99.90;;;;;;5248684;27;20080;-84
2024/04/12 18:54:59;;;;;;;4.82;2.10;;;17.70;99.90;;;;;;5239435;27;20015;-83
2024/04/12 18:57:26;;;;;;;4.72;2.20;;;17.70;99.90;;;;;;5230440;27;20515;-84
2024/04/12 18:59:53;;;;;;;5.13;2.05;;;17.70;99.90;;;;;;5239546;27;20398;-84
2024/04/12 19:02:21;;;;;;;4.93;2.05;;;17.70;99.90;;;;;;5263131;27;20015;-85
2024/04/12 19:04:46;;;;;;;4.30;2.00;;;17.60;99.90;;;;;;5234653;27;20015;-83